Time;durP1;ratioP1;P1;durP2;ratioP2;P2;SDS_P1;SDS_P2;PMS_P1;PMS_P2;Temp;Humidity;BMP_temperature;BMP_pressure;BME280_temperature;BME280_humidity;BME280_pressure;Samples;Min_cycle;Max_cycle;Signal;HPM_P1;HPM_P2
2022/10/17 00:01:55;;;;;;;31.57;19.15;;;;;;;14.53;89.26;100007.42;1753537;82;21028;-44
2022/10/17 00:04:21;;;;;;;27.30;18.27;;;;;;;14.53;89.48;100003.93;1753523;82;20997;-43
2022/10/17 00:06:46;;;;;;;28.02;18.35;;;;;;;14.53;89.51;100000.80;1753517;82;21028;-44
2022/10/17 00:09:12;;;;;;;28.10;18.42;;;;;;;14.53;89.66;100008.74;1753557;82;21892;-47
2022/10/17 00:11:38;;;;;;;31.02;18.25;;;;;;;14.54;89.44;100014.91;1753540;82;21535;-41
2022/10/17 00:14:04;;;;;;;33.83;19.10;;;;;;;14.54;89.73;100021.05;1753559;82;21514;-44
2022/10/17 00:16:35;;;;;;;28.40;18.15;;;;;;;14.54;89.90;100019.73;1753601;81;21487;-52
2022/10/17 00:19:04;;;;;;;28.87;19.35;;;;;;;14.56;89.81;100027.09;1753539;82;21039;-41
2022/10/17 00:21:30;;;;;;;29.80;18.67;;;;;;;14.61;89.55;100032.61;1753479;82;21005;-40
2022/10/17 00:23:56;;;;;;;28.62;17.95;;;;;;;14.62;89.84;100034.33;1753510;82;20988;-45
2022/10/17 00:26:22;;;;;;;29.02;17.25;;;;;;;14.62;89.62;100029.03;1753485;82;20989;-42
2022/10/17 00:28:51;;;;;;;25.35;17.80;;;;;;;14.64;89.49;100035.08;1753546;82;21000;-41
2022/10/17 00:31:19;;;;;;;27.05;18.02;;;;;;;14.63;89.72;100034.72;1753471;82;21005;-46
2022/10/17 00:33:46;;;;;;;29.72;18.12;;;;;;;14.66;89.85;100036.71;1753559;82;21549;-42
2022/10/17 00:36:16;;;;;;;28.38;19.02;;;;;;;14.66;89.83;100036.71;1753501;82;20992;-42
2022/10/17 00:38:47;;;;;;;31.85;19.00;;;;;;;14.68;90.00;100032.62;1752755;82;20961;-40
2022/10/17 00:41:16;;;;;;;28.05;17.80;;;;;;;14.67;89.74;100036.23;1753441;82;20968;-43
2022/10/17 00:43:56;;;;;;;26.30;17.75;;;;;;;14.66;89.50;100033.19;1753584;82;20991;-42
2022/10/17 00:46:27;;;;;;;26.80;18.82;;;;;;;14.66;89.52;100027.89;1753464;82;20976;-43
2022/10/17 00:48:55;;;;;;;27.10;18.27;;;;;;;14.61;89.60;100027.31;1753044;82;20993;-42
2022/10/17 00:51:35;;;;;;;28.73;17.80;;;;;;;14.62;89.37;100025.06;1701854;82;20996;-41
2022/10/17 00:54:02;;;;;;;25.48;17.45;;;;;;;14.61;89.22;100016.73;1741015;82;20952;-45
2022/10/17 00:56:28;;;;;;;;;;;;;;;14.58;89.42;100022.59;1743979;82;20963;-42
2022/10/17 00:58:54;;;;;;;29.65;18.92;;;;;;;14.54;89.89;100021.53;1741308;82;20155;-46
2022/10/17 01:01:20;;;;;;;28.50;18.82;;;;;;;14.51;89.63;100015.93;1741313;82;20992;-41
2022/10/17 01:03:46;;;;;;;32.63;18.12;;;;;;;14.49;89.49;100019.14;1741400;82;20980;-41
2022/10/17 01:06:12;;;;;;;27.25;18.00;;;;;;;14.49;89.63;100015.66;1741289;82;20976;-43
2022/10/17 01:08:38;;;;;;;32.23;18.65;;;;;;;14.47;89.53;100012.25;1741289;81;20982;-46
2022/10/17 01:11:24;;;;;;;27.37;17.70;;;;;;;14.46;89.47;100014.06;1741287;82;20980;-42
2022/10/17 01:13:58;;;;;;;31.40;19.03;;;;;;;14.43;89.57;100025.30;1741618;82;20980;-39
2022/10/17 01:16:50;;;;;;;31.87;18.37;;;;;;;14.39;89.32;100024.63;1740482;82;21839;-39
2022/10/17 01:19:36;;;;;;;30.82;18.15;;;;;;;14.36;89.24;100033.58;1723000;82;21008;-46
2022/10/17 01:22:25;;;;;;;31.30;18.48;;;;;;;14.29;89.71;100032.72;1740876;82;20976;-44
2022/10/17 01:25:29;;;;;;;32.85;18.42;;;;;;;14.24;89.88;100030.80;1739754;82;20991;-44
2022/10/17 01:28:15;;;;;;;30.48;18.87;;;;;;;14.17;90.17;100016.63;1741242;82;21449;-44
2022/10/17 01:30:55;;;;;;;33.28;20.40;;;;;;;14.14;90.43;100018.60;1741165;82;21826;-46
2022/10/17 01:33:38;;;;;;;28.27;19.00;;;;;;;14.10;90.19;100020.57;1739610;82;20944;-46
2022/10/17 01:36:15;;;;;;;33.75;19.52;;;;;;;14.09;90.04;100015.37;1740653;82;21023;-47
2022/10/17 01:38:52;;;;;;;29.00;19.05;;;;;;;14.05;90.29;100008.08;1740831;82;21835;-48
2022/10/17 01:41:27;;;;;;;;;;;;;;;14.02;90.48;100010.89;1743900;82;20983;-41
2022/10/17 01:43:58;;;;;;;30.60;18.85;;;;;;;13.97;90.89;100011.62;1741231;82;20423;-47
2022/10/17 01:46:42;;;;;;;35.48;19.42;;;;;;;13.95;90.62;100019.67;1741129;82;21010;-44
2022/10/17 01:49:12;;;;;;;28.92;18.62;;;;;;;13.95;90.46;100021.44;1741244;82;21003;-41
2022/10/17 01:51:49;;;;;;;29.23;18.70;;;;;;;13.92;90.34;100029.09;1761532;81;21000;-42
2022/10/17 01:54:21;;;;;;;;;;;;;;;13.89;90.59;100035.03;1764206;81;20964;-44
2022/10/17 01:56:52;;;;;;;28.25;18.35;;;;;;;13.86;90.83;100041.36;1761350;81;20110;-42
2022/10/17 01:59:26;;;;;;;26.15;18.77;;;;;;;13.86;90.61;100044.45;1761313;81;20988;-42
2022/10/17 02:01:54;;;;;;;27.17;18.48;;;;;;;13.85;90.69;100045.41;1761571;81;20957;-40
2022/10/17 02:04:21;;;;;;;30.15;18.52;;;;;;;13.85;90.32;100038.80;1733785;81;20969;-45
2022/10/17 02:06:46;;;;;;;29.15;19.05;;;;;;;13.83;90.69;100038.88;1761847;81;20988;-43
2022/10/17 02:09:22;;;;;;;28.32;18.52;;;;;;;13.79;90.72;100036.87;1761649;81;20996;-41
2022/10/17 02:12:10;;;;;;;29.77;19.90;;;;;;;13.77;90.72;100037.88;1761649;81;20993;-44
2022/10/17 02:15:06;;;;;;;26.87;18.32;;;;;;;13.74;90.45;100038.92;1761412;81;20988;-44
2022/10/17 02:17:49;;;;;;;27.62;18.92;;;;;;;13.73;90.61;100036.36;1761872;81;21522;-41
2022/10/17 02:20:20;;;;;;;29.85;19.52;;;;;;;13.68;90.74;100035.31;1761344;81;21623;-42
2022/10/17 02:23:22;;;;;;;27.98;18.92;;;;;;;13.67;91.26;100028.79;1761655;81;21482;-42
2022/10/17 02:25:56;;;;;;;32.80;19.55;;;;;;;13.67;91.00;100030.11;1761358;81;20992;-46
2022/10/17 02:28:27;;;;;;;30.57;19.12;;;;;;;13.66;90.94;100038.97;1759841;81;20956;-47
2022/10/17 02:31:25;;;;;;;28.12;18.55;;;;;;;13.65;91.13;100044.73;1760911;81;21005;-45
2022/10/17 02:33:58;;;;;;;28.87;17.62;;;;;;;13.64;90.90;100045.66;1761643;81;21036;-45
2022/10/17 02:36:40;;;;;;;28.92;18.70;;;;;;;13.61;90.94;100044.52;1733760;81;21517;-46
2022/10/17 02:39:09;;;;;;;34.48;19.62;;;;;;;13.61;90.68;100049.81;1761610;81;21038;-49
2022/10/17 02:43:35;;;;;;;27.70;19.07;;;;;;;13.60;91.25;100050.73;1856703;77;22962;-46
2022/10/17 02:46:01;;;;;;;30.37;18.40;;;;;;;13.55;91.02;100043.52;1829458;78;20971;-42
2022/10/17 02:48:41;;;;;;;28.05;19.35;;;;;;;13.55;91.16;100049.69;1829455;78;20990;-38
2022/10/17 02:51:48;;;;;;;26.17;18.37;;;;;;;13.55;91.04;100057.61;1829261;78;21459;-43
2022/10/17 02:54:25;;;;;;;28.42;18.52;;;;;;;13.53;91.04;100055.97;1829274;78;21478;-46
2022/10/17 02:56:56;;;;;;;27.10;18.27;;;;;;;13.53;90.88;100062.10;1828921;78;21030;-43
2022/10/17 02:59:25;;;;;;;33.70;19.73;;;;;;;13.51;91.09;100060.02;1827212;78;21393;-40
2022/10/17 03:01:51;;;;;;;28.55;19.20;;;;;;;13.52;90.76;100056.93;1829481;78;21010;-47
2022/10/17 03:04:18;;;;;;;29.92;19.17;;;;;;;13.52;90.89;100060.41;1829444;78;21173;-47
2022/10/17 03:06:46;;;;;;;27.42;18.87;;;;;;;13.52;90.76;100065.70;1829554;78;21474;-43
2022/10/17 03:09:12;;;;;;;25.57;18.42;;;;;;;13.51;90.80;100065.30;1829366;78;21029;-39
2022/10/17 03:11:38;;;;;;;34.20;18.60;;;;;;;13.52;90.66;100074.11;1829466;78;21471;-45
2022/10/17 03:14:04;;;;;;;28.92;18.27;;;;;;;13.51;90.71;100075.88;1829472;78;20969;-42
2022/10/17 03:16:29;;;;;;;31.07;18.35;;;;;;;13.50;90.78;100080.80;1829447;78;20974;-41
2022/10/17 03:18:55;;;;;;;32.48;19.12;;;;;;;13.47;90.81;100077.46;1829382;78;20971;-44
2022/10/17 03:21:21;;;;;;;28.23;18.70;;;;;;;13.44;90.76;100078.02;1829316;78;21009;-41
2022/10/17 03:23:47;;;;;;;29.10;19.15;;;;;;;13.42;90.87;100073.30;1829343;78;20958;-42
2022/10/17 03:26:12;;;;;;;27.15;17.80;;;;;;;13.41;90.72;100078.17;1829344;78;20951;-41
2022/10/17 03:28:38;;;;;;;32.28;18.30;;;;;;;13.40;90.75;100075.14;1829574;78;20959;-40
2022/10/17 03:31:13;;;;;;;28.15;18.50;;;;;;;13.38;90.84;100075.69;1829357;78;21417;-43
2022/10/17 03:33:39;;;;;;;38.15;17.87;;;;;;;13.38;90.63;100077.02;1828061;78;21017;-41
2022/10/17 03:36:13;;;;;;;27.90;18.00;;;;;;;13.36;90.71;100072.28;1829340;78;20983;-44
2022/10/17 03:38:39;;;;;;;30.68;19.07;;;;;;;13.36;90.68;100068.80;1829350;78;20983;-43
2022/10/17 03:41:06;;;;;;;31.48;18.27;;;;;;;13.34;90.60;100072.84;1829419;78;21487;-38
2022/10/17 03:43:32;;;;;;;31.68;18.15;;;;;;;13.32;90.91;100061.51;1815048;78;21461;-43
2022/10/17 03:45:59;;;;;;;28.38;18.02;;;;;;;13.30;90.87;100071.28;1813291;79;20975;-40
2022/10/17 03:48:28;;;;;;;28.75;18.80;;;;;;;13.28;90.92;100077.11;1813403;79;20955;-44
2022/10/17 03:51:06;;;;;;;30.55;17.45;;;;;;;13.28;90.96;100082.84;1813229;79;20972;-42
2022/10/17 03:53:33;;;;;;;25.95;18.12;;;;;;;13.24;91.10;100076.87;1813057;79;20948;-50
2022/10/17 03:56:15;;;;;;;27.00;17.60;;;;;;;13.23;90.88;100076.50;1812853;79;21523;-45
2022/10/17 03:58:42;;;;;;;29.23;17.45;;;;;;;13.21;91.11;100074.42;1812661;79;21471;-38
2022/10/17 04:01:10;;;;;;;29.55;17.40;;;;;;;13.21;90.83;100080.55;1812912;79;21002;-43
2022/10/17 04:03:37;;;;;;;31.25;17.52;;;;;;;13.21;90.92;100087.14;1812560;78;20983;-44
2022/10/17 04:06:04;;;;;;;29.37;17.50;;;;;;;13.23;90.84;100089.71;1812978;79;21472;-39
2022/10/17 04:08:31;;;;;;;24.90;17.23;;;;;;;13.23;90.95;100098.95;1812751;79;20982;-42
2022/10/17 04:11:01;;;;;;;32.83;17.10;;;;;;;13.22;90.91;100099.43;1812568;79;20979;-43
2022/10/17 04:13:28;;;;;;;24.20;17.25;;;;;;;13.23;90.59;100095.84;1812634;78;20983;-44
2022/10/17 04:15:58;;;;;;;33.35;17.40;;;;;;;13.24;90.57;100102.84;1812748;79;20983;-46
2022/10/17 04:18:24;;;;;;;31.60;18.07;;;;;;;13.25;90.50;100102.36;1812475;79;21006;-47
2022/10/17 04:20:50;;;;;;;31.75;17.60;;;;;;;13.25;90.57;100094.44;1812648;79;21014;-45
2022/10/17 04:23:16;;;;;;;26.85;17.05;;;;;;;13.25;90.41;100101.05;1812608;79;20974;-45
2022/10/17 04:25:42;;;;;;;29.48;16.57;;;;;;;13.24;90.26;100104.60;1812634;79;20983;-47
2022/10/17 04:28:07;;;;;;;25.72;16.55;;;;;;;13.22;90.49;100101.20;1812712;79;20984;-42
2022/10/17 04:30:33;;;;;;;26.70;16.67;;;;;;;13.20;90.38;100106.55;1812587;79;21015;-44
2022/10/17 04:32:59;;;;;;;33.18;17.02;;;;;;;13.20;90.55;100110.99;1812715;79;20975;-39
2022/10/17 04:35:25;;;;;;;28.25;16.35;;;;;;;13.19;90.69;100110.15;1812647;79;20982;-44
2022/10/17 04:37:50;;;;;;;27.73;16.73;;;;;;;13.18;90.62;100108.91;1812653;79;21519;-40
2022/10/17 04:40:17;;;;;;;28.52;17.05;;;;;;;13.17;90.66;100108.06;1812680;79;21480;-41
2022/10/17 04:42:42;;;;;;;27.95;16.73;;;;;;;13.17;90.62;100108.50;1810125;79;21465;-42
2022/10/17 04:45:09;;;;;;;22.67;16.10;;;;;;;13.14;90.79;100112.65;1807169;79;20983;-43
2022/10/17 04:47:35;;;;;;;24.67;17.15;;;;;;;13.13;90.70;100113.56;1807502;79;21013;-43
2022/10/17 04:50:01;;;;;;;29.35;16.50;;;;;;;13.13;90.68;100113.56;1807295;79;20991;-46
2022/10/17 04:52:27;;;;;;;40.35;17.45;;;;;;;13.11;90.87;100104.41;1807314;79;20983;-43
2022/10/17 04:54:53;;;;;;;35.65;18.05;;;;;;;13.10;90.88;100097.44;1807222;79;20978;-39
2022/10/17 04:57:18;;;;;;;29.32;18.12;;;;;;;13.08;90.94;100088.74;1807229;79;20975;-43
2022/10/17 04:59:44;;;;;;;33.95;18.12;;;;;;;13.08;90.99;100090.51;1807191;79;21489;-43
2022/10/17 05:02:10;;;;;;;42.95;18.15;;;;;;;13.08;90.75;100090.51;1807253;79;21457;-43
2022/10/17 05:04:36;;;;;;;33.75;18.27;;;;;;;13.06;90.99;100091.45;1807292;79;21464;-44
2022/10/17 05:07:02;;;;;;;35.95;17.70;;;;;;;13.08;90.91;100094.02;1807179;79;20983;-45
2022/10/17 05:09:29;;;;;;;27.90;17.35;;;;;;;13.09;90.82;100093.55;1807185;79;21179;-44
2022/10/17 05:11:55;;;;;;;30.97;18.17;;;;;;;13.07;90.64;100094.95;1807166;79;21084;-44
2022/10/17 05:14:21;;;;;;;27.70;17.82;;;;;;;13.09;90.88;100092.23;1807125;79;21026;-46
2022/10/17 05:16:46;;;;;;;32.23;17.17;;;;;;;13.07;90.85;100098.91;1807214;79;20982;-46
2022/10/17 05:19:12;;;;;;;28.83;16.95;;;;;;;13.08;91.00;100101.07;1807302;79;20979;-44
2022/10/17 05:21:38;;;;;;;28.10;16.97;;;;;;;13.08;90.69;100097.11;1807128;79;21058;-43
2022/10/17 05:24:06;;;;;;;32.78;16.12;;;;;;;13.08;90.63;100104.59;1807282;79;20972;-40
2022/10/17 05:26:32;;;;;;;25.75;15.98;;;;;;;13.10;90.78;100117.23;1807183;79;21464;-46
2022/10/17 05:29:01;;;;;;;33.58;15.45;;;;;;;13.09;90.65;100124.76;1807180;79;20975;-45
2022/10/17 05:31:28;;;;;;;34.35;15.88;;;;;;;13.11;90.46;100135.25;1807241;79;20963;-46
2022/10/17 05:33:55;;;;;;;25.92;15.53;;;;;;;13.11;90.40;100136.56;1807361;79;20960;-40
2022/10/17 05:36:21;;;;;;;26.33;16.20;;;;;;;13.13;90.26;100138.66;1807438;79;20975;-44
2022/10/17 05:38:51;;;;;;;25.85;16.27;;;;;;;13.13;90.35;100141.30;1807176;79;21026;-41
2022/10/17 05:41:18;;;;;;;24.50;15.60;;;;;;;13.13;90.23;100155.34;1807148;79;20967;-42
2022/10/17 05:43:44;;;;;;;24.25;15.80;;;;;;;13.11;90.53;100160.33;1811297;79;21365;-43
2022/10/17 05:46:10;;;;;;;24.60;15.88;;;;;;;13.11;90.29;100167.78;1812573;79;20991;-41
2022/10/17 05:48:36;;;;;;;27.70;16.48;;;;;;;13.11;90.34;100173.06;1812642;79;20972;-44
2022/10/17 05:51:06;;;;;;;27.67;16.37;;;;;;;13.12;90.38;100172.62;1812649;79;21433;-44
2022/10/17 05:53:35;;;;;;;31.87;17.15;;;;;;;13.12;90.42;100173.47;1812579;79;21018;-43
2022/10/17 05:56:03;;;;;;;22.52;16.15;;;;;;;13.12;90.39;100168.19;1812491;79;21027;-44
2022/10/17 05:58:31;;;;;;;29.18;16.50;;;;;;;13.14;90.42;100168.95;1812568;79;20971;-45
2022/10/17 06:01:04;;;;;;;31.95;17.55;;;;;;;13.16;90.37;100168.88;1812527;78;20964;-43
2022/10/17 06:03:30;;;;;;;38.53;18.32;;;;;;;13.17;90.22;100167.92;1811942;79;21687;-43
2022/10/17 06:06:10;;;;;;;42.70;17.67;;;;;;;13.18;90.24;100153.80;1812642;79;21018;-39
2022/10/17 06:08:36;;;;;;;29.63;16.25;;;;;;;13.19;90.06;100156.37;1812419;79;20967;-39
2022/10/17 06:11:03;;;;;;;45.38;16.48;;;;;;;13.21;90.27;100153.17;1812566;78;21037;-43
2022/10/17 06:13:29;;;;;;;30.48;17.23;;;;;;;13.25;90.04;100154.71;1812467;79;21026;-38
2022/10/17 06:15:55;;;;;;;29.23;16.42;;;;;;;13.28;90.03;100155.48;1812757;79;21022;-40
2022/10/17 06:18:21;;;;;;;32.63;16.35;;;;;;;13.30;90.06;100154.92;1812554;79;20982;-40
2022/10/17 06:20:48;;;;;;;28.12;16.42;;;;;;;13.32;90.09;100162.37;1812612;79;21026;-45
